Pico Rivera, California
Current Conditions -  °F | °C
As of 11:53 AM on Monday 22 Dec 2014 (Local Time) from KFUL Reporting Station
Clear Clear  
Wind Chill: 70°   Ceiling: Unl
Heat Index: 70°   Visibility: 7mi
Dew Point: 50°   Wind: 0mph
Humidity: 49%   Direction: NA
Pressure: 29.99"   Gusts: NA
Location:  33.98°N, 118.08°W
Report Text: KFUL 221953Z 00000KT 7SM CLR 21/10 A2999 RMK AO2 SLP154 T02110100
Loading
Personal Weather Stations






























Interactive Weather Map New forecast layout! Learn more

10-Day Weather Forecast

Advertisements
Track Severe Weather on mobile